sensor_id;sensor_type;location;lat;lon;timestamp;temperature;humidity
74873;HTU21D;68776;44.762;37.698;2023-04-08T13:00:02;18.65;53.14
74873;HTU21D;68776;44.762;37.698;2023-04-08T17:45:12;12.62;80.60
74873;HTU21D;68776;44.762;37.698;2023-04-08T17:46:13;12.61;80.58
74873;HTU21D;68776;44.762;37.698;2023-04-08T17:47:14;12.59;80.62
74873;HTU21D;68776;44.762;37.698;2023-04-08T17:48:16;12.57;80.71
74873;HTU21D;68776;44.762;37.698;2023-04-08T17:49:17;12.56;80.70
74873;HTU21D;68776;44.762;37.698;2023-04-08T17:50:18;12.57;80.64
74873;HTU21D;68776;44.762;37.698;2023-04-08T17:51:19;12.53;80.70
74873;HTU21D;68776;44.762;37.698;2023-04-08T17:52:20;12.51;80.93
74873;HTU21D;68776;44.762;37.698;2023-04-08T17:53:21;12.50;81.01
74873;HTU21D;68776;44.762;37.698;2023-04-08T17:54:22;12.52;80.96
74873;HTU21D;68776;44.762;37.698;2023-04-08T17:55:27;12.53;80.98
74873;HTU21D;68776;44.762;37.698;2023-04-08T17:56:28;12.55;81.04
74873;HTU21D;68776;44.762;37.698;2023-04-08T17:57:30;12.55;81.03
74873;HTU21D;68776;44.762;37.698;2023-04-08T17:58:31;12.55;80.91
74873;HTU21D;68776;44.762;37.698;2023-04-08T17:59:32;12.53;80.91
74873;HTU21D;68776;44.762;37.698;2023-04-08T18:00:33;12.51;80.96
74873;HTU21D;68776;44.762;37.698;2023-04-08T18:01:34;12.52;80.90
74873;HTU21D;68776;44.762;37.698;2023-04-08T18:02:36;12.55;80.87
74873;HTU21D;68776;44.762;37.698;2023-04-08T18:03:38;12.56;80.85
74873;HTU21D;68776;44.762;37.698;2023-04-08T18:04:38;12.56;80.85
74873;HTU21D;68776;44.762;37.698;2023-04-08T18:05:41;12.56;80.94
74873;HTU21D;68776;44.762;37.698;2023-04-08T18:06:42;12.56;81.01
74873;HTU21D;68776;44.762;37.698;2023-04-08T18:07:43;12.51;81.19
74873;HTU21D;68776;44.762;37.698;2023-04-08T18:08:44;12.51;81.25
74873;HTU21D;68776;44.762;37.698;2023-04-08T18:09:49;12.52;81.27
74873;HTU21D;68776;44.762;37.698;2023-04-08T18:10:50;12.55;81.31
74873;HTU21D;68776;44.762;37.698;2023-04-08T18:11:51;12.57;81.31
74873;HTU21D;68776;44.762;37.698;2023-04-08T18:12:52;12.60;81.21
74873;HTU21D;68776;44.762;37.698;2023-04-08T18:13:53;12.62;81.12
74873;HTU21D;68776;44.762;37.698;2023-04-08T18:14:54;12.64;81.19
74873;HTU21D;68776;44.762;37.698;2023-04-08T18:15:55;12.65;81.20
74873;HTU21D;68776;44.762;37.698;2023-04-08T18:16:56;12.66;81.14
74873;HTU21D;68776;44.762;37.698;2023-04-08T18:17:57;12.69;81.14
74873;HTU21D;68776;44.762;37.698;2023-04-08T18:18:58;12.71;81.09
74873;HTU21D;68776;44.762;37.698;2023-04-08T18:19:59;12.73;81.03
74873;HTU21D;68776;44.762;37.698;2023-04-08T18:21:00;12.75;81.08
74873;HTU21D;68776;44.762;37.698;2023-04-08T18:22:01;12.76;81.00
74873;HTU21D;68776;44.762;37.698;2023-04-08T18:23:02;12.77;81.07
74873;HTU21D;68776;44.762;37.698;2023-04-08T18:24:04;12.77;80.98
74873;HTU21D;68776;44.762;37.698;2023-04-08T18:25:05;12.79;80.81
74873;HTU21D;68776;44.762;37.698;2023-04-08T18:26:07;12.80;80.85
74873;HTU21D;68776;44.762;37.698;2023-04-08T18:27:07;12.79;80.94
74873;HTU21D;68776;44.762;37.698;2023-04-08T18:28:09;12.79;80.84
74873;HTU21D;68776;44.762;37.698;2023-04-08T18:29:10;12.80;80.89
74873;HTU21D;68776;44.762;37.698;2023-04-08T18:30:12;12.79;80.93
74873;HTU21D;68776;44.762;37.698;2023-04-08T18:31:13;12.76;80.90
74873;HTU21D;68776;44.762;37.698;2023-04-08T18:32:14;12.76;80.87
74873;HTU21D;68776;44.762;37.698;2023-04-08T18:33:15;12.76;80.98
74873;HTU21D;68776;44.762;37.698;2023-04-08T18:34:16;12.74;81.00
74873;HTU21D;68776;44.762;37.698;2023-04-08T18:35:18;12.75;80.96
74873;HTU21D;68776;44.762;37.698;2023-04-08T18:36:19;12.76;80.91
74873;HTU21D;68776;44.762;37.698;2023-04-08T18:37:22;12.77;80.81
74873;HTU21D;68776;44.762;37.698;2023-04-08T18:38:23;12.74;80.60
74873;HTU21D;68776;44.762;37.698;2023-04-08T18:39:24;12.75;80.58
74873;HTU21D;68776;44.762;37.698;2023-04-08T18:40:25;12.75;80.52
74873;HTU21D;68776;44.762;37.698;2023-04-08T18:41:26;12.79;80.47
74873;HTU21D;68776;44.762;37.698;2023-04-08T18:42:27;12.77;80.40
74873;HTU21D;68776;44.762;37.698;2023-04-08T18:43:28;12.75;80.46
74873;HTU21D;68776;44.762;37.698;2023-04-08T18:44:29;12.75;80.37
74873;HTU21D;68776;44.762;37.698;2023-04-08T18:45:30;12.74;80.35
74873;HTU21D;68776;44.762;37.698;2023-04-08T18:46:31;12.73;80.46
74873;HTU21D;68776;44.762;37.698;2023-04-08T18:47:32;12.72;80.49
74873;HTU21D;68776;44.762;37.698;2023-04-08T18:48:33;12.70;80.49
74873;HTU21D;68776;44.762;37.698;2023-04-08T18:49:35;12.69;80.49
74873;HTU21D;68776;44.762;37.698;2023-04-08T18:50:38;12.66;80.52
74873;HTU21D;68776;44.762;37.698;2023-04-08T18:51:39;12.67;80.57
74873;HTU21D;68776;44.762;37.698;2023-04-08T18:52:40;12.67;80.62
74873;HTU21D;68776;44.762;37.698;2023-04-08T18:53:42;12.66;80.60
74873;HTU21D;68776;44.762;37.698;2023-04-08T18:54:43;12.69;80.56
74873;HTU21D;68776;44.762;37.698;2023-04-08T18:55:44;12.67;80.53
74873;HTU21D;68776;44.762;37.698;2023-04-08T18:56:45;12.65;80.55
74873;HTU21D;68776;44.762;37.698;2023-04-08T18:57:46;12.64;80.60
74873;HTU21D;68776;44.762;37.698;2023-04-08T18:58:47;12.62;80.67
74873;HTU21D;68776;44.762;37.698;2023-04-08T18:59:49;12.61;80.67
74873;HTU21D;68776;44.762;37.698;2023-04-08T19:00:50;12.60;80.70
74873;HTU21D;68776;44.762;37.698;2023-04-08T19:01:51;12.59;80.75
74873;HTU21D;68776;44.762;37.698;2023-04-08T19:02:52;12.57;80.78
74873;HTU21D;68776;44.762;37.698;2023-04-08T19:03:53;12.51;80.80
74873;HTU21D;68776;44.762;37.698;2023-04-08T19:04:54;12.49;80.83
74873;HTU21D;68776;44.762;37.698;2023-04-08T19:05:55;12.48;80.93
74873;HTU21D;68776;44.762;37.698;2023-04-08T19:06:56;12.49;80.94
74873;HTU21D;68776;44.762;37.698;2023-04-08T19:07:57;12.48;80.98
74873;HTU21D;68776;44.762;37.698;2023-04-08T19:09:00;12.45;80.96
74873;HTU21D;68776;44.762;37.698;2023-04-08T19:10:01;12.43;81.04
74873;HTU21D;68776;44.762;37.698;2023-04-08T19:11:03;12.42;80.99
74873;HTU21D;68776;44.762;37.698;2023-04-08T19:12:04;12.37;81.06
74873;HTU21D;68776;44.762;37.698;2023-04-08T19:13:05;12.35;81.19
74873;HTU21D;68776;44.762;37.698;2023-04-08T19:14:06;12.34;81.27
74873;HTU21D;68776;44.762;37.698;2023-04-08T19:15:07;12.35;81.24
74873;HTU21D;68776;44.762;37.698;2023-04-08T19:16:08;12.34;81.26
74873;HTU21D;68776;44.762;37.698;2023-04-08T19:17:10;12.33;81.32
74873;HTU21D;68776;44.762;37.698;2023-04-08T19:18:11;12.30;81.27
74873;HTU21D;68776;44.762;37.698;2023-04-08T19:19:12;12.27;81.24
74873;HTU21D;68776;44.762;37.698;2023-04-08T19:20:13;12.23;81.31
74873;HTU21D;68776;44.762;37.698;2023-04-08T19:21:14;12.20;81.36
74873;HTU21D;68776;44.762;37.698;2023-04-08T19:22:15;12.22;81.33
74873;HTU21D;68776;44.762;37.698;2023-04-08T19:23:16;12.23;81.36
74873;HTU21D;68776;44.762;37.698;2023-04-08T19:24:18;12.26;81.34
74873;HTU21D;68776;44.762;37.698;2023-04-08T19:25:20;12.25;81.36
74873;HTU21D;68776;44.762;37.698;2023-04-08T19:26:21;12.26;81.27
74873;HTU21D;68776;44.762;37.698;2023-04-08T19:27:23;12.25;81.21
74873;HTU21D;68776;44.762;37.698;2023-04-08T19:28:24;12.26;81.11
74873;HTU21D;68776;44.762;37.698;2023-04-08T19:29:25;12.28;81.08
74873;HTU21D;68776;44.762;37.698;2023-04-08T19:30:36;12.29;81.06
74873;HTU21D;68776;44.762;37.698;2023-04-08T19:31:46;12.32;80.93
74873;HTU21D;68776;44.762;37.698;2023-04-08T19:32:48;12.33;80.82
74873;HTU21D;68776;44.762;37.698;2023-04-08T19:33:49;12.37;80.68
74873;HTU21D;68776;44.762;37.698;2023-04-08T19:34:50;12.37;80.47
74873;HTU21D;68776;44.762;37.698;2023-04-08T19:35:52;12.40;80.44
74873;HTU21D;68776;44.762;37.698;2023-04-08T19:36:53;12.43;80.40
74873;HTU21D;68776;44.762;37.698;2023-04-08T19:37:54;12.43;80.30
74873;HTU21D;68776;44.762;37.698;2023-04-08T19:38:55;12.43;80.17
74873;HTU21D;68776;44.762;37.698;2023-04-08T19:39:56;12.41;80.14
74873;HTU21D;68776;44.762;37.698;2023-04-08T19:40:57;12.42;80.14
74873;HTU21D;68776;44.762;37.698;2023-04-08T19:41:58;12.40;80.15
74873;HTU21D;68776;44.762;37.698;2023-04-08T19:42:59;12.38;80.24
74873;HTU21D;68776;44.762;37.698;2023-04-08T19:44:00;12.38;80.19
74873;HTU21D;68776;44.762;37.698;2023-04-08T19:45:02;12.40;80.24
74873;HTU21D;68776;44.762;37.698;2023-04-08T19:46:03;12.42;80.27
74873;HTU21D;68776;44.762;37.698;2023-04-08T19:47:05;12.43;80.19
74873;HTU21D;68776;44.762;37.698;2023-04-08T19:48:06;12.43;80.21
74873;HTU21D;68776;44.762;37.698;2023-04-08T19:49:07;12.41;80.21
74873;HTU21D;68776;44.762;37.698;2023-04-08T19:50:09;12.40;80.12
74873;HTU21D;68776;44.762;37.698;2023-04-08T19:51:16;12.42;80.01
74873;HTU21D;68776;44.762;37.698;2023-04-08T19:52:20;12.42;80.00
74873;HTU21D;68776;44.762;37.698;2023-04-08T19:53:21;12.38;79.99
74873;HTU21D;68776;44.762;37.698;2023-04-08T19:54:23;12.36;80.03
74873;HTU21D;68776;44.762;37.698;2023-04-08T19:55:24;12.34;80.17
74873;HTU21D;68776;44.762;37.698;2023-04-08T19:56:25;12.32;80.24
74873;HTU21D;68776;44.762;37.698;2023-04-08T19:57:27;12.32;80.27
74873;HTU21D;68776;44.762;37.698;2023-04-08T19:58:28;12.27;80.17
74873;HTU21D;68776;44.762;37.698;2023-04-08T19:59:29;12.20;80.30
74873;HTU21D;68776;44.762;37.698;2023-04-08T20:00:30;12.17;80.46
74873;HTU21D;68776;44.762;37.698;2023-04-08T20:01:32;12.11;80.52
74873;HTU21D;68776;44.762;37.698;2023-04-08T20:02:36;12.06;80.67
74873;HTU21D;68776;44.762;37.698;2023-04-08T20:03:37;12.05;80.83
74873;HTU21D;68776;44.762;37.698;2023-04-08T20:04:38;12.03;81.01
74873;HTU21D;68776;44.762;37.698;2023-04-08T20:05:39;12.04;81.02
74873;HTU21D;68776;44.762;37.698;2023-04-08T20:06:40;12.03;81.03
74873;HTU21D;68776;44.762;37.698;2023-04-08T20:07:41;12.02;81.08
74873;HTU21D;68776;44.762;37.698;2023-04-08T20:08:43;11.99;81.16
74873;HTU21D;68776;44.762;37.698;2023-04-08T20:09:44;11.97;81.21
74873;HTU21D;68776;44.762;37.698;2023-04-08T20:10:45;11.94;81.28
74873;HTU21D;68776;44.762;37.698;2023-04-08T20:11:48;11.93;81.36
74873;HTU21D;68776;44.762;37.698;2023-04-08T20:12:51;11.92;81.44
74873;HTU21D;68776;44.762;37.698;2023-04-08T20:13:52;11.91;81.52
74873;HTU21D;68776;44.762;37.698;2023-04-08T20:14:54;11.89;81.55
74873;HTU21D;68776;44.762;37.698;2023-04-08T20:15:55;11.87;81.65
74873;HTU21D;68776;44.762;37.698;2023-04-08T20:16:56;11.84;81.81
74873;HTU21D;68776;44.762;37.698;2023-04-08T20:17:57;11.83;81.88
74873;HTU21D;68776;44.762;37.698;2023-04-08T20:18:58;11.83;81.98
74873;HTU21D;68776;44.762;37.698;2023-04-08T20:19:59;11.79;82.13
74873;HTU21D;68776;44.762;37.698;2023-04-08T20:21:00;11.78;82.24
74873;HTU21D;68776;44.762;37.698;2023-04-08T20:22:01;11.77;82.29
74873;HTU21D;68776;44.762;37.698;2023-04-08T20:23:02;11.75;82.41
74873;HTU21D;68776;44.762;37.698;2023-04-08T20:24:04;11.72;82.55
74873;HTU21D;68776;44.762;37.698;2023-04-08T20:25:05;11.70;82.72
74873;HTU21D;68776;44.762;37.698;2023-04-08T20:26:07;11.69;82.92
74873;HTU21D;68776;44.762;37.698;2023-04-08T20:27:09;11.70;83.04
74873;HTU21D;68776;44.762;37.698;2023-04-08T20:28:10;11.70;83.10
74873;HTU21D;68776;44.762;37.698;2023-04-08T20:29:12;11.67;83.16
74873;HTU21D;68776;44.762;37.698;2023-04-08T20:30:13;11.68;83.28
74873;HTU21D;68776;44.762;37.698;2023-04-08T20:31:14;11.68;83.41
74873;HTU21D;68776;44.762;37.698;2023-04-08T20:32:15;11.68;83.43
74873;HTU21D;68776;44.762;37.698;2023-04-08T20:33:17;11.71;83.41
74873;HTU21D;68776;44.762;37.698;2023-04-08T20:34:19;11.73;83.35
74873;HTU21D;68776;44.762;37.698;2023-04-08T20:35:20;11.75;83.38
74873;HTU21D;68776;44.762;37.698;2023-04-08T20:36:21;11.75;83.32
74873;HTU21D;68776;44.762;37.698;2023-04-08T20:37:24;11.75;83.32
74873;HTU21D;68776;44.762;37.698;2023-04-08T20:38:25;11.75;83.42
74873;HTU21D;68776;44.762;37.698;2023-04-08T20:39:27;11.75;83.46
74873;HTU21D;68776;44.762;37.698;2023-04-08T20:40:30;11.76;83.56
74873;HTU21D;68776;44.762;37.698;2023-04-08T20:41:31;11.76;83.63
74873;HTU21D;68776;44.762;37.698;2023-04-08T20:42:32;11.76;83.55
74873;HTU21D;68776;44.762;37.698;2023-04-08T20:43:33;11.78;83.52
74873;HTU21D;68776;44.762;37.698;2023-04-08T20:44:34;11.77;83.56
74873;HTU21D;68776;44.762;37.698;2023-04-08T20:45:36;11.79;83.52
74873;HTU21D;68776;44.762;37.698;2023-04-08T20:46:37;11.81;83.49
74873;HTU21D;68776;44.762;37.698;2023-04-08T20:47:39;11.81;83.43
74873;HTU21D;68776;44.762;37.698;2023-04-08T20:48:40;11.82;83.36
74873;HTU21D;68776;44.762;37.698;2023-04-08T20:49:41;11.83;83.36
74873;HTU21D;68776;44.762;37.698;2023-04-08T20:50:42;11.85;83.35
74873;HTU21D;68776;44.762;37.698;2023-04-08T20:51:44;11.84;83.39
74873;HTU21D;68776;44.762;37.698;2023-04-08T20:52:46;11.84;83.37
74873;HTU21D;68776;44.762;37.698;2023-04-08T20:53:47;11.83;83.33
74873;HTU21D;68776;44.762;37.698;2023-04-08T20:54:48;11.82;83.42
74873;HTU21D;68776;44.762;37.698;2023-04-08T20:55:49;11.84;83.41
74873;HTU21D;68776;44.762;37.698;2023-04-08T20:56:50;11.84;83.32
74873;HTU21D;68776;44.762;37.698;2023-04-08T20:57:51;11.85;83.34
74873;HTU21D;68776;44.762;37.698;2023-04-08T20:58:52;11.86;83.33
74873;HTU21D;68776;44.762;37.698;2023-04-08T20:59:53;11.86;83.23
74873;HTU21D;68776;44.762;37.698;2023-04-08T21:00:56;11.86;83.24
74873;HTU21D;68776;44.762;37.698;2023-04-08T21:01:58;11.85;83.25
74873;HTU21D;68776;44.762;37.698;2023-04-08T21:02:59;11.84;83.30
74873;HTU21D;68776;44.762;37.698;2023-04-08T21:04:00;11.83;83.27
74873;HTU21D;68776;44.762;37.698;2023-04-08T21:05:02;11.85;83.32
74873;HTU21D;68776;44.762;37.698;2023-04-08T21:06:03;11.84;83.32
74873;HTU21D;68776;44.762;37.698;2023-04-08T21:07:05;11.86;83.26
74873;HTU21D;68776;44.762;37.698;2023-04-08T21:08:05;11.87;83.20
74873;HTU21D;68776;44.762;37.698;2023-04-08T21:09:06;11.88;83.18
74873;HTU21D;68776;44.762;37.698;2023-04-08T21:10:08;11.89;83.23
74873;HTU21D;68776;44.762;37.698;2023-04-08T21:11:09;11.84;83.23
74873;HTU21D;68776;44.762;37.698;2023-04-08T21:12:10;11.81;83.26
74873;HTU21D;68776;44.762;37.698;2023-04-08T21:13:11;11.81;83.27
74873;HTU21D;68776;44.762;37.698;2023-04-08T21:14:12;11.79;83.24
74873;HTU21D;68776;44.762;37.698;2023-04-08T21:15:13;11.78;83.28
74873;HTU21D;68776;44.762;37.698;2023-04-08T21:16:15;11.75;83.33
74873;HTU21D;68776;44.762;37.698;2023-04-08T21:17:16;11.72;83.40
74873;HTU21D;68776;44.762;37.698;2023-04-08T21:18:17;11.72;83.45
74873;HTU21D;68776;44.762;37.698;2023-04-08T21:19:18;11.72;83.39
74873;HTU21D;68776;44.762;37.698;2023-04-08T21:20:19;11.73;83.42
74873;HTU21D;68776;44.762;37.698;2023-04-08T21:21:20;11.75;83.40
74873;HTU21D;68776;44.762;37.698;2023-04-08T21:22:21;11.76;83.35
74873;HTU21D;68776;44.762;37.698;2023-04-08T21:23:22;11.77;83.32
74873;HTU21D;68776;44.762;37.698;2023-04-08T21:24:23;11.76;83.35
74873;HTU21D;68776;44.762;37.698;2023-04-08T21:25:24;11.75;83.26
74873;HTU21D;68776;44.762;37.698;2023-04-08T21:26:26;11.75;83.28
74873;HTU21D;68776;44.762;37.698;2023-04-08T21:27:27;11.77;83.20
74873;HTU21D;68776;44.762;37.698;2023-04-08T21:28:28;11.76;83.18
74873;HTU21D;68776;44.762;37.698;2023-04-08T21:29:29;11.76;83.19
74873;HTU21D;68776;44.762;37.698;2023-04-08T21:30:30;11.77;83.28
74873;HTU21D;68776;44.762;37.698;2023-04-08T21:31:31;11.79;83.19
74873;HTU21D;68776;44.762;37.698;2023-04-08T21:32:32;11.81;83.17
74873;HTU21D;68776;44.762;37.698;2023-04-08T21:33:36;11.81;83.20
74873;HTU21D;68776;44.762;37.698;2023-04-08T21:34:37;11.81;83.20
74873;HTU21D;68776;44.762;37.698;2023-04-08T21:35:38;11.77;83.32
74873;HTU21D;68776;44.762;37.698;2023-04-08T21:36:39;11.78;83.28
74873;HTU21D;68776;44.762;37.698;2023-04-08T21:37:40;11.78;83.33
74873;HTU21D;68776;44.762;37.698;2023-04-08T21:38:41;11.77;83.39
74873;HTU21D;68776;44.762;37.698;2023-04-08T21:39:42;11.75;83.54
74873;HTU21D;68776;44.762;37.698;2023-04-08T21:40:43;11.76;83.58
74873;HTU21D;68776;44.762;37.698;2023-04-08T21:41:44;11.76;83.58
74873;HTU21D;68776;44.762;37.698;2023-04-08T21:42:44;11.77;83.55
74873;HTU21D;68776;44.762;37.698;2023-04-08T21:43:45;11.79;83.53
74873;HTU21D;68776;44.762;37.698;2023-04-08T21:44:48;11.79;83.52
74873;HTU21D;68776;44.762;37.698;2023-04-08T21:45:49;11.78;83.54
74873;HTU21D;68776;44.762;37.698;2023-04-08T21:46:50;11.76;83.64
74873;HTU21D;68776;44.762;37.698;2023-04-08T21:47:51;11.79;83.55
74873;HTU21D;68776;44.762;37.698;2023-04-08T21:48:52;11.81;83.50
74873;HTU21D;68776;44.762;37.698;2023-04-08T21:49:53;11.81;83.49
74873;HTU21D;68776;44.762;37.698;2023-04-08T21:50:55;11.79;83.49
74873;HTU21D;68776;44.762;37.698;2023-04-08T21:51:56;11.81;83.49
74873;HTU21D;68776;44.762;37.698;2023-04-08T21:53:00;11.82;83.45
74873;HTU21D;68776;44.762;37.698;2023-04-08T21:54:01;11.82;83.46
74873;HTU21D;68776;44.762;37.698;2023-04-08T21:55:03;11.81;83.46
74873;HTU21D;68776;44.762;37.698;2023-04-08T21:56:04;11.82;83.39
74873;HTU21D;68776;44.762;37.698;2023-04-08T21:57:06;11.78;83.42
74873;HTU21D;68776;44.762;37.698;2023-04-08T21:58:07;11.81;83.45
74873;HTU21D;68776;44.762;37.698;2023-04-08T21:59:08;11.82;83.43
74873;HTU21D;68776;44.762;37.698;2023-04-08T22:00:09;11.84;83.32
74873;HTU21D;68776;44.762;37.698;2023-04-08T22:01:16;11.85;83.22
74873;HTU21D;68776;44.762;37.698;2023-04-08T22:02:17;11.84;83.18
74873;HTU21D;68776;44.762;37.698;2023-04-08T22:03:17;11.83;83.16
74873;HTU21D;68776;44.762;37.698;2023-04-08T22:04:18;11.82;83.13
74873;HTU21D;68776;44.762;37.698;2023-04-08T22:05:19;11.82;83.04
74873;HTU21D;68776;44.762;37.698;2023-04-08T22:06:21;11.81;83.13
74873;HTU21D;68776;44.762;37.698;2023-04-08T22:07:22;11.82;83.11
74873;HTU21D;68776;44.762;37.698;2023-04-08T22:08:22;11.84;83.03
74873;HTU21D;68776;44.762;37.698;2023-04-08T22:09:23;11.83;82.93
74873;HTU21D;68776;44.762;37.698;2023-04-08T22:10:24;11.84;82.92
74873;HTU21D;68776;44.762;37.698;2023-04-08T22:11:25;11.81;83.00
74873;HTU21D;68776;44.762;37.698;2023-04-08T22:12:26;11.78;82.99
74873;HTU21D;68776;44.762;37.698;2023-04-08T22:13:27;11.77;83.02
74873;HTU21D;68776;44.762;37.698;2023-04-08T22:14:28;11.76;83.12
74873;HTU21D;68776;44.762;37.698;2023-04-08T22:15:29;11.74;83.06
74873;HTU21D;68776;44.762;37.698;2023-04-08T22:16:30;11.74;83.08
74873;HTU21D;68776;44.762;37.698;2023-04-08T22:17:31;11.74;83.04
74873;HTU21D;68776;44.762;37.698;2023-04-08T22:18:32;11.74;82.91
74873;HTU21D;68776;44.762;37.698;2023-04-08T22:19:33;11.72;82.94
74873;HTU21D;68776;44.762;37.698;2023-04-08T22:20:34;11.69;82.97
74873;HTU21D;68776;44.762;37.698;2023-04-08T22:21:36;11.68;83.06
74873;HTU21D;68776;44.762;37.698;2023-04-08T22:22:36;11.68;83.02
74873;HTU21D;68776;44.762;37.698;2023-04-08T22:23:37;11.69;82.94
74873;HTU21D;68776;44.762;37.698;2023-04-08T22:24:38;71.20;82.90
74873;HTU21D;68776;44.762;37.698;2023-04-08T22:25:39;11.64;82.95
74873;HTU21D;68776;44.762;37.698;2023-04-08T22:26:40;11.61;83.00
74873;HTU21D;68776;44.762;37.698;2023-04-08T22:27:41;11.61;83.08
74873;HTU21D;68776;44.762;37.698;2023-04-08T22:28:42;11.62;83.10
74873;HTU21D;68776;44.762;37.698;2023-04-08T22:29:43;11.62;83.11
74873;HTU21D;68776;44.762;37.698;2023-04-08T22:30:44;11.62;83.10
74873;HTU21D;68776;44.762;37.698;2023-04-08T22:31:45;11.62;83.07
74873;HTU21D;68776;44.762;37.698;2023-04-08T22:32:46;11.62;83.14
74873;HTU21D;68776;44.762;37.698;2023-04-08T22:33:47;11.67;83.10
74873;HTU21D;68776;44.762;37.698;2023-04-08T22:34:48;11.68;83.01
74873;HTU21D;68776;44.762;37.698;2023-04-08T22:35:49;11.72;82.86
74873;HTU21D;68776;44.762;37.698;2023-04-08T22:36:50;11.75;82.77
74873;HTU21D;68776;44.762;37.698;2023-04-08T22:37:51;11.76;82.67
74873;HTU21D;68776;44.762;37.698;2023-04-08T22:38:52;11.78;82.55
74873;HTU21D;68776;44.762;37.698;2023-04-08T22:39:53;11.79;82.52
74873;HTU21D;68776;44.762;37.698;2023-04-08T22:40:53;11.81;82.45
74873;HTU21D;68776;44.762;37.698;2023-04-08T22:41:55;11.84;82.26
74873;HTU21D;68776;44.762;37.698;2023-04-08T22:42:56;11.85;82.19
74873;HTU21D;68776;44.762;37.698;2023-04-08T22:43:57;11.83;82.22
74873;HTU21D;68776;44.762;37.698;2023-04-08T22:44:58;11.81;82.24
74873;HTU21D;68776;44.762;37.698;2023-04-08T22:45:59;11.81;82.23
74873;HTU21D;68776;44.762;37.698;2023-04-08T22:47:00;11.75;82.20
74873;HTU21D;68776;44.762;37.698;2023-04-08T22:48:01;11.72;82.26
74873;HTU21D;68776;44.762;37.698;2023-04-08T22:49:02;11.67;82.34
74873;HTU21D;68776;44.762;37.698;2023-04-08T22:50:03;11.66;82.36
74873;HTU21D;68776;44.762;37.698;2023-04-08T22:51:04;11.62;82.34
74873;HTU21D;68776;44.762;37.698;2023-04-08T22:52:05;11.61;82.46
74873;HTU21D;68776;44.762;37.698;2023-04-08T22:53:06;11.58;82.45
74873;HTU21D;68776;44.762;37.698;2023-04-08T22:54:07;11.59;82.52
74873;HTU21D;68776;44.762;37.698;2023-04-08T22:55:08;11.61;82.52
74873;HTU21D;68776;44.762;37.698;2023-04-08T22:56:09;11.63;82.46
74873;HTU21D;68776;44.762;37.698;2023-04-08T22:57:11;11.66;82.44
74873;HTU21D;68776;44.762;37.698;2023-04-08T22:58:11;11.68;82.36
74873;HTU21D;68776;44.762;37.698;2023-04-08T22:59:12;11.66;82.33
74873;HTU21D;68776;44.762;37.698;2023-04-08T23:00:13;11.64;82.29
74873;HTU21D;68776;44.762;37.698;2023-04-08T23:01:16;11.63;82.34
74873;HTU21D;68776;44.762;37.698;2023-04-08T23:02:20;0.00;82.30
74873;HTU21D;68776;44.762;37.698;2023-04-08T23:03:21;11.64;82.33
74873;HTU21D;68776;44.762;37.698;2023-04-08T23:04:22;11.62;82.42
74873;HTU21D;68776;44.762;37.698;2023-04-08T23:05:23;11.62;82.49
74873;HTU21D;68776;44.762;37.698;2023-04-08T23:06:24;11.63;82.42
74873;HTU21D;68776;44.762;37.698;2023-04-08T23:07:26;11.68;82.32
74873;HTU21D;68776;44.762;37.698;2023-04-08T23:08:27;11.68;82.13
74873;HTU21D;68776;44.762;37.698;2023-04-08T23:09:28;11.71;81.94
74873;HTU21D;68776;44.762;37.698;2023-04-08T23:10:29;11.72;81.95
74873;HTU21D;68776;44.762;37.698;2023-04-08T23:11:30;11.74;81.95
74873;HTU21D;68776;44.762;37.698;2023-04-08T23:12:31;11.75;81.86
74873;HTU21D;68776;44.762;37.698;2023-04-08T23:13:32;11.78;81.77
74873;HTU21D;68776;44.762;37.698;2023-04-08T23:14:33;11.78;81.72
74873;HTU21D;68776;44.762;37.698;2023-04-08T23:15:34;11.82;81.72
74873;HTU21D;68776;44.762;37.698;2023-04-08T23:16:35;11.79;81.66
74873;HTU21D;68776;44.762;37.698;2023-04-08T23:17:36;11.77;81.73
74873;HTU21D;68776;44.762;37.698;2023-04-08T23:18:37;11.73;81.67
74873;HTU21D;68776;44.762;37.698;2023-04-08T23:19:38;11.69;81.72
74873;HTU21D;68776;44.762;37.698;2023-04-08T23:20:39;11.67;81.80
74873;HTU21D;68776;44.762;37.698;2023-04-08T23:21:39;11.67;81.87
74873;HTU21D;68776;44.762;37.698;2023-04-08T23:22:40;11.64;81.87
74873;HTU21D;68776;44.762;37.698;2023-04-08T23:23:41;11.61;81.86
74873;HTU21D;68776;44.762;37.698;2023-04-08T23:24:42;11.58;81.84
74873;HTU21D;68776;44.762;37.698;2023-04-08T23:25:43;11.57;81.87
74873;HTU21D;68776;44.762;37.698;2023-04-08T23:26:44;11.56;81.91
74873;HTU21D;68776;44.762;37.698;2023-04-08T23:27:45;11.54;82.01
74873;HTU21D;68776;44.762;37.698;2023-04-08T23:28:46;11.55;81.91
74873;HTU21D;68776;44.762;37.698;2023-04-08T23:29:47;11.56;81.91
74873;HTU21D;68776;44.762;37.698;2023-04-08T23:30:48;11.59;81.84
74873;HTU21D;68776;44.762;37.698;2023-04-08T23:31:49;11.60;81.72
74873;HTU21D;68776;44.762;37.698;2023-04-08T23:32:50;11.63;81.60
74873;HTU21D;68776;44.762;37.698;2023-04-08T23:33:51;11.62;81.52
74873;HTU21D;68776;44.762;37.698;2023-04-08T23:34:52;11.62;81.50
74873;HTU21D;68776;44.762;37.698;2023-04-08T23:35:53;11.59;81.60
74873;HTU21D;68776;44.762;37.698;2023-04-08T23:36:53;11.56;81.55
74873;HTU21D;68776;44.762;37.698;2023-04-08T23:37:54;11.57;81.56
74873;HTU21D;68776;44.762;37.698;2023-04-08T23:38:55;11.55;81.53
74873;HTU21D;68776;44.762;37.698;2023-04-08T23:39:56;11.56;81.55
74873;HTU21D;68776;44.762;37.698;2023-04-08T23:40:57;11.51;81.47
74873;HTU21D;68776;44.762;37.698;2023-04-08T23:41:58;11.45;81.52
74873;HTU21D;68776;44.762;37.698;2023-04-08T23:42:59;11.41;81.55
74873;HTU21D;68776;44.762;37.698;2023-04-08T23:44:00;11.37;81.57
74873;HTU21D;68776;44.762;37.698;2023-04-08T23:45:01;11.36;81.56
74873;HTU21D;68776;44.762;37.698;2023-04-08T23:46:02;11.33;81.52
74873;HTU21D;68776;44.762;37.698;2023-04-08T23:47:03;11.30;81.56
74873;HTU21D;68776;44.762;37.698;2023-04-08T23:48:04;11.30;81.69
74873;HTU21D;68776;44.762;37.698;2023-04-08T23:49:06;11.28;81.74
74873;HTU21D;68776;44.762;37.698;2023-04-08T23:50:07;11.24;81.74
74873;HTU21D;68776;44.762;37.698;2023-04-08T23:51:08;11.23;81.80
74873;HTU21D;68776;44.762;37.698;2023-04-08T23:52:11;11.22;81.90
74873;HTU21D;68776;44.762;37.698;2023-04-08T23:53:12;11.20;82.05
74873;HTU21D;68776;44.762;37.698;2023-04-08T23:54:13;11.22;82.07
74873;HTU21D;68776;44.762;37.698;2023-04-08T23:55:14;11.23;82.13
74873;HTU21D;68776;44.762;37.698;2023-04-08T23:56:15;11.23;82.14
74873;HTU21D;68776;44.762;37.698;2023-04-08T23:57:16;11.23;82.19
74873;HTU21D;68776;44.762;37.698;2023-04-08T23:58:16;11.23;82.21
74873;HTU21D;68776;44.762;37.698;2023-04-08T23:59:17;11.18;82.19
